createdAt,value
2019-03-20T00:02:14.830Z,27.27
2019-03-20T00:04:49.696Z,27.87
2019-03-20T00:07:17.495Z,27.90
2019-03-20T00:09:47.995Z,27.80
2019-03-20T00:12:20.943Z,27.33
2019-03-20T00:14:51.257Z,28.23
2019-03-20T00:17:21.879Z,28.03
2019-03-20T00:19:52.107Z,28.47
2019-03-20T00:22:22.443Z,28.67
2019-03-20T00:24:52.814Z,29.77
2019-03-20T00:27:23.063Z,29.43
2019-03-20T00:29:53.321Z,28.20
2019-03-20T00:32:23.671Z,28.83
2019-03-20T00:35:00.702Z,28.83
2019-03-20T00:37:28.120Z,27.67
2019-03-20T00:39:58.480Z,29.87
2019-03-20T00:42:28.768Z,28.23
2019-03-20T00:44:59.194Z,28.80
2019-03-20T00:47:29.524Z,29.30
2019-03-20T00:49:59.920Z,29.80
2019-03-20T00:52:30.378Z,30.20
2019-03-20T00:55:00.769Z,30.00
2019-03-20T00:57:31.164Z,30.20
2019-03-20T01:00:01.520Z,30.40
2019-03-20T01:02:31.980Z,29.80
2019-03-20T01:05:12.170Z,30.83
2019-03-20T01:07:34.394Z,30.50
2019-03-20T01:10:06.031Z,29.03
2019-03-20T01:12:36.488Z,30.77
2019-03-20T01:15:07.043Z,30.77
2019-03-20T01:17:37.319Z,31.10
2019-03-20T01:20:08.064Z,31.47
2019-03-20T01:22:40.709Z,30.50
2019-03-20T01:25:11.817Z,29.53
2019-03-20T01:27:42.191Z,28.30
2019-03-20T01:30:30.891Z,30.17
2019-03-20T01:33:02.561Z,28.40
2019-03-20T01:35:33.026Z,29.43
2019-03-20T01:38:03.387Z,28.10
2019-03-20T01:40:33.901Z,27.87
2019-03-20T01:43:04.258Z,27.43
2019-03-20T01:45:34.518Z,29.10
2019-03-20T01:48:05.472Z,27.37
2019-03-20T01:50:35.770Z,26.70
2019-03-20T01:53:06.072Z,27.60
2019-03-20T01:55:36.365Z,26.63
2019-03-20T01:58:06.781Z,27.20
2019-03-20T02:00:37.459Z,26.33
2019-03-20T02:03:07.775Z,26.70
2019-03-20T02:05:38.065Z,25.27
2019-03-20T02:08:08.436Z,26.70
2019-03-20T02:10:38.775Z,26.03
2019-03-20T02:13:09.045Z,24.07
2019-03-20T02:15:39.841Z,23.80
2019-03-20T02:18:10.114Z,23.60
2019-03-20T02:20:40.494Z,23.47
2019-03-20T02:23:10.787Z,24.50
2019-03-20T02:25:41.121Z,24.00
2019-03-20T02:28:11.375Z,21.77
2019-03-20T02:30:41.659Z,21.00
2019-03-20T02:33:11.929Z,21.43
2019-03-20T02:35:51.308Z,20.73
2019-03-20T02:38:15.304Z,18.23
2019-03-20T02:40:45.616Z,19.73
2019-03-20T02:43:17.008Z,15.43
2019-03-20T02:45:48.978Z,15.27
2019-03-20T02:48:19.235Z,14.13
2019-03-20T02:50:49.657Z,13.70
2019-03-20T02:53:19.944Z,12.67
2019-03-20T02:55:50.209Z,13.83
2019-03-20T02:58:20.402Z,12.03
2019-03-20T03:00:50.669Z,14.03
2019-03-20T03:03:21.112Z,12.27
2019-03-20T03:06:06.089Z,13.27
2019-03-20T03:08:25.918Z,14.10
2019-03-20T03:10:56.231Z,14.20
2019-03-20T03:13:26.799Z,14.60
2019-03-20T03:15:57.082Z,13.17
2019-03-20T03:18:27.638Z,14.07
2019-03-20T03:20:59.596Z,14.53
2019-03-20T03:23:30.008Z,14.30
2019-03-20T03:26:00.345Z,15.17
2019-03-20T03:28:30.772Z,14.43
2019-03-20T03:31:02.402Z,14.43
2019-03-20T03:33:32.975Z,14.37
2019-03-20T03:36:03.313Z,15.47
2019-03-20T03:38:33.625Z,15.20
2019-03-20T03:41:03.890Z,15.70
2019-03-20T03:43:34.217Z,14.50
2019-03-20T03:46:04.673Z,15.87
2019-03-20T03:48:35.068Z,15.23
2019-03-20T03:51:05.376Z,15.87
2019-03-20T03:53:36.373Z,15.67
2019-03-20T03:56:06.674Z,15.10
2019-03-20T03:58:37.054Z,15.27
2019-03-20T04:01:07.338Z,15.07
2019-03-20T04:03:39.508Z,12.80
2019-03-20T04:06:09.782Z,13.97
2019-03-20T04:08:40.084Z,14.07
2019-03-20T04:11:10.399Z,13.70
2019-03-20T04:13:40.735Z,15.37
2019-03-20T04:16:11.061Z,16.13
2019-03-20T04:18:41.383Z,15.90
2019-03-20T04:21:11.695Z,15.97
2019-03-20T04:23:41.940Z,16.53
2019-03-20T04:26:12.299Z,16.67
2019-03-20T04:28:42.755Z,18.73
2019-03-20T04:31:12.996Z,17.83
2019-03-20T04:33:43.353Z,15.90
2019-03-20T04:36:13.594Z,16.80
2019-03-20T04:38:43.880Z,17.90
2019-03-20T04:41:14.149Z,18.17
2019-03-20T04:43:45.763Z,17.63
2019-03-20T04:46:16.009Z,18.37
2019-03-20T04:48:46.313Z,16.87
2019-03-20T04:51:16.678Z,16.33
2019-03-20T04:53:46.984Z,17.17
2019-03-20T04:56:17.489Z,17.53
2019-03-20T04:58:47.780Z,16.70
2019-03-20T05:01:17.978Z,17.30
2019-03-20T05:03:48.440Z,16.30
2019-03-20T05:06:18.841Z,16.40
2019-03-20T05:08:50.193Z,15.40
2019-03-20T05:11:20.591Z,16.47
2019-03-20T05:13:50.934Z,18.20
2019-03-20T05:16:21.252Z,16.73
2019-03-20T05:18:51.587Z,16.53
2019-03-20T05:21:21.939Z,16.50
2019-03-20T05:23:52.243Z,16.03
2019-03-20T05:26:22.519Z,16.10
2019-03-20T05:28:52.792Z,17.17
2019-03-20T05:31:23.029Z,15.63
2019-03-20T05:33:53.380Z,16.33
2019-03-20T05:36:23.641Z,16.83
2019-03-20T05:38:53.983Z,17.23
2019-03-20T05:41:24.329Z,16.57
2019-03-20T05:43:54.629Z,16.70
2019-03-20T05:46:24.972Z,16.37
2019-03-20T05:48:55.270Z,18.03
2019-03-20T05:51:25.741Z,18.07
2019-03-20T05:53:57.011Z,15.90
2019-03-20T05:56:27.303Z,16.73
2019-03-20T05:58:57.605Z,16.67
2019-03-20T06:01:28.037Z,17.13
2019-03-20T06:04:08.434Z,18.40
2019-03-20T06:06:38.738Z,17.20
2019-03-20T06:09:09.177Z,15.33
2019-03-20T06:11:39.423Z,16.67
2019-03-20T06:14:09.729Z,16.83
2019-03-20T06:16:40.037Z,18.67
2019-03-20T06:19:10.473Z,17.40
2019-03-20T06:21:40.759Z,17.13
2019-03-20T06:24:11.123Z,16.97
2019-03-20T06:26:41.579Z,19.17
2019-03-20T06:29:11.857Z,16.97
2019-03-20T06:31:42.139Z,17.70
2019-03-20T06:34:12.551Z,16.10
2019-03-20T06:36:42.907Z,17.87
2019-03-20T06:39:13.217Z,18.80
2019-03-20T06:41:43.581Z,16.60
2019-03-20T06:44:13.874Z,16.67
2019-03-20T06:46:44.250Z,16.10
2019-03-20T06:49:14.591Z,17.13
2019-03-20T06:51:44.929Z,17.53
2019-03-20T06:54:15.226Z,16.10
2019-03-20T06:56:45.564Z,16.23
2019-03-20T07:00:12.908Z,15.50
2019-03-20T07:02:46.340Z,15.07
2019-03-20T07:05:46.195Z,16.67
2019-03-20T07:08:16.623Z,16.90
2019-03-20T07:11:07.629Z,15.87
2019-03-20T07:13:37.965Z,16.33
2019-03-20T07:16:08.495Z,16.43
2019-03-20T07:18:38.897Z,15.60
2019-03-20T07:21:09.320Z,14.83
2019-03-20T07:23:39.589Z,15.47
2019-03-20T07:26:09.894Z,15.83
2019-03-20T07:28:40.192Z,14.70
2019-03-20T07:31:15.124Z,15.37
2019-03-20T07:33:42.733Z,15.97
2019-03-20T07:36:13.428Z,16.40
2019-03-20T07:38:43.838Z,14.87
2019-03-20T07:41:16.088Z,15.57
2019-03-20T07:43:46.618Z,15.93
2019-03-20T07:46:17.244Z,15.83
2019-03-20T07:48:47.730Z,15.33
2019-03-20T07:51:18.232Z,15.17
2019-03-20T07:53:48.591Z,15.63
2019-03-20T07:56:18.945Z,14.60
2019-03-20T07:58:49.283Z,16.27
2019-03-20T08:01:20.428Z,15.97
2019-03-20T08:03:50.903Z,15.13
2019-03-20T08:06:21.183Z,15.30
2019-03-20T08:08:51.639Z,15.37
2019-03-20T08:11:22.031Z,15.87
2019-03-20T08:13:52.380Z,16.70
2019-03-20T08:16:22.821Z,15.50
2019-03-20T08:18:53.157Z,16.30
2019-03-20T08:21:23.573Z,16.53
2019-03-20T08:23:53.900Z,16.23
2019-03-20T08:26:24.207Z,16.33
2019-03-20T08:28:55.568Z,21.68
2019-03-20T08:31:25.993Z,17.30
2019-03-20T08:33:57.350Z,16.90
2019-03-20T08:36:27.755Z,16.50
2019-03-20T08:38:58.214Z,16.37
2019-03-20T08:41:28.764Z,17.20
2019-03-20T08:44:02.315Z,16.57
2019-03-20T08:46:33.765Z,15.33
2019-03-20T08:49:04.469Z,16.07
2019-03-20T08:51:34.918Z,16.93
2019-03-20T08:54:05.578Z,17.27
2019-03-20T08:56:36.132Z,17.00
2019-03-20T08:59:08.178Z,17.33
2019-03-20T09:01:38.555Z,15.80
2019-03-20T09:04:08.961Z,15.87
2019-03-20T09:06:39.290Z,16.40
2019-03-20T09:09:09.887Z,16.90
2019-03-20T09:11:41.112Z,16.53
2019-03-20T09:14:12.483Z,16.30
2019-03-20T09:16:42.856Z,16.20
2019-03-20T09:19:13.203Z,16.20
2019-03-20T09:21:43.599Z,17.83
2019-03-20T09:24:14.073Z,18.07
2019-03-20T09:26:44.450Z,16.43
2019-03-20T09:29:18.880Z,17.03
2019-03-20T09:31:46.821Z,18.77
2019-03-20T09:34:17.212Z,17.63
2019-03-20T09:36:47.702Z,16.70
2019-03-20T09:39:18.035Z,16.87
2019-03-20T09:41:48.304Z,17.00
2019-03-20T09:44:18.593Z,17.90
2019-03-20T09:46:48.915Z,18.53
2019-03-20T09:49:19.251Z,17.53
2019-03-20T09:51:49.514Z,17.60
2019-03-20T09:54:20.472Z,17.97
2019-03-20T09:56:50.724Z,17.57
2019-03-20T09:59:21.035Z,17.47
2019-03-20T10:01:51.400Z,18.40
2019-03-20T10:04:22.064Z,17.20
2019-03-20T10:06:52.404Z,20.13
2019-03-20T10:09:22.816Z,18.67
2019-03-20T10:11:53.119Z,18.37
2019-03-20T10:14:23.504Z,18.37
2019-03-20T10:16:53.829Z,18.47
2019-03-20T10:19:24.269Z,17.47
2019-03-20T10:21:54.591Z,19.73
2019-03-20T10:24:28.218Z,17.47
2019-03-20T10:26:58.586Z,19.60
2019-03-20T10:29:29.100Z,19.83
2019-03-20T10:31:59.453Z,17.67
2019-03-20T10:34:39.127Z,18.47
2019-03-20T10:37:03.451Z,17.83
2019-03-20T10:39:33.907Z,18.77
2019-03-20T10:42:04.348Z,17.77
2019-03-20T10:44:34.651Z,19.13
2019-03-20T10:47:05.106Z,17.40
2019-03-20T10:49:35.526Z,19.07
2019-03-20T10:52:05.991Z,17.70
2019-03-20T10:54:54.049Z,18.77
2019-03-20T10:57:25.153Z,17.83
2019-03-20T10:59:55.636Z,18.20
2019-03-20T11:02:27.206Z,17.90
2019-03-20T11:04:59.282Z,18.03
2019-03-20T11:07:29.580Z,17.37
2019-03-20T11:09:59.962Z,17.77
2019-03-20T11:12:30.382Z,17.77
2019-03-20T11:15:00.950Z,17.40
2019-03-20T11:17:31.423Z,17.20
2019-03-20T11:20:02.889Z,18.13
2019-03-20T11:22:33.211Z,17.00
2019-03-20T11:25:03.627Z,18.17
2019-03-20T11:27:34.029Z,18.93
2019-03-20T11:30:05.605Z,18.90
2019-03-20T11:32:36.163Z,17.67
2019-03-20T11:35:06.611Z,18.07
2019-03-20T11:37:36.921Z,16.27
2019-03-20T11:40:09.953Z,17.13
2019-03-20T11:42:40.879Z,17.40
2019-03-20T11:45:11.412Z,16.90
2019-03-20T11:47:41.761Z,18.23
2019-03-20T11:50:15.060Z,17.83
2019-03-20T11:52:45.372Z,18.73
2019-03-20T11:55:17.232Z,17.17
2019-03-20T11:57:47.827Z,18.23
2019-03-20T12:00:19.226Z,18.43
2019-03-20T12:02:49.529Z,19.23
2019-03-20T12:05:19.888Z,18.87
2019-03-20T12:07:50.294Z,19.33
2019-03-20T12:10:21.653Z,19.90
2019-03-20T12:12:52.013Z,18.63
2019-03-20T12:15:22.979Z,18.23
2019-03-20T12:17:53.441Z,17.60
2019-03-20T12:20:23.842Z,17.67
2019-03-20T12:22:54.611Z,16.37
2019-03-20T12:25:26.756Z,16.47
2019-03-20T12:27:57.226Z,16.97
2019-03-20T12:30:28.802Z,17.53
2019-03-20T12:33:00.216Z,17.63
2019-03-20T12:35:31.412Z,16.80
2019-03-20T12:38:13.297Z,17.63
2019-03-20T12:40:33.974Z,16.03
2019-03-20T12:43:04.768Z,16.93
2019-03-20T12:45:35.233Z,18.47
2019-03-20T12:48:06.213Z,17.77
2019-03-20T12:50:36.563Z,17.40
2019-03-20T12:53:07.048Z,17.37
2019-03-20T12:55:37.504Z,15.70
2019-03-20T12:58:07.981Z,18.40
2019-03-20T13:00:39.888Z,18.00
2019-03-20T13:03:10.227Z,17.87
2019-03-20T13:05:40.529Z,16.80
2019-03-20T13:08:10.889Z,16.43
2019-03-20T13:10:41.221Z,16.47
2019-03-20T13:13:15.365Z,16.90
2019-03-20T13:15:45.800Z,16.60
2019-03-20T13:18:16.236Z,16.47
2019-03-20T13:20:46.677Z,15.10
2019-03-20T13:23:19.024Z,15.20
2019-03-20T13:25:49.713Z,15.80
2019-03-20T13:28:21.584Z,16.30
2019-03-20T13:30:55.175Z,15.07
2019-03-20T13:33:26.354Z,15.47
2019-03-20T13:35:56.794Z,15.30
2019-03-20T13:38:27.164Z,14.63
2019-03-20T13:40:57.603Z,14.20
2019-03-20T13:43:28.196Z,14.40
2019-03-20T13:45:58.575Z,14.00
2019-03-20T13:48:30.038Z,14.60
2019-03-20T13:51:00.331Z,13.07
2019-03-20T13:53:31.068Z,14.10
2019-03-20T13:56:01.460Z,14.47
2019-03-20T13:58:31.940Z,13.50
2019-03-20T14:01:02.455Z,14.17
2019-03-20T14:03:35.607Z,12.60
2019-03-20T14:06:05.912Z,13.30
2019-03-20T14:08:36.360Z,13.87
2019-03-20T14:11:06.705Z,13.07
2019-03-20T14:13:40.478Z,12.87
2019-03-20T14:16:11.877Z,13.90
2019-03-20T14:18:44.780Z,14.00
2019-03-20T14:21:15.315Z,13.33
2019-03-20T14:23:46.388Z,14.13
2019-03-20T14:26:17.094Z,13.20
2019-03-20T14:28:47.673Z,13.63
2019-03-20T14:31:18.104Z,13.27
2019-03-20T14:33:50.561Z,13.27
2019-03-20T14:36:20.998Z,13.23
2019-03-20T14:38:51.606Z,14.47
2019-03-20T14:41:21.987Z,12.60
2019-03-20T14:43:52.600Z,14.30
2019-03-20T14:46:22.860Z,13.27
2019-03-20T14:48:53.361Z,15.77
2019-03-20T14:51:23.893Z,14.60
2019-03-20T14:53:55.503Z,14.23
2019-03-20T14:56:25.901Z,13.53
2019-03-20T14:58:56.447Z,12.90
2019-03-20T15:01:28.671Z,13.97
2019-03-20T15:03:59.123Z,12.77
2019-03-20T15:06:29.768Z,13.87
2019-03-20T15:09:00.091Z,12.63
2019-03-20T15:11:30.771Z,12.93
2019-03-20T15:14:01.525Z,13.03
2019-03-20T15:16:32.071Z,12.20
2019-03-20T15:19:02.571Z,13.93
2019-03-20T15:21:33.208Z,11.97
2019-03-20T15:24:05.009Z,13.03
2019-03-20T15:26:35.700Z,12.40
2019-03-20T15:29:06.119Z,13.13
2019-03-20T15:31:38.274Z,12.67
2019-03-20T15:34:11.740Z,11.83
2019-03-20T15:36:42.224Z,14.07
2019-03-20T15:39:12.698Z,12.90
2019-03-20T15:41:43.488Z,12.13
2019-03-20T15:44:16.675Z,12.07
2019-03-20T15:46:47.064Z,13.33
2019-03-20T15:49:19.193Z,13.33
2019-03-20T15:51:49.591Z,13.97
2019-03-20T15:54:21.552Z,11.67
2019-03-20T15:56:52.035Z,12.60
2019-03-20T15:59:22.606Z,12.73
2019-03-20T16:01:53.514Z,12.63
2019-03-20T16:04:24.250Z,12.87
2019-03-20T16:06:54.726Z,12.90
2019-03-20T16:09:27.570Z,13.60
2019-03-20T16:11:58.940Z,14.27
2019-03-20T16:14:31.261Z,13.50
2019-03-20T16:17:02.838Z,13.27
2019-03-20T16:19:33.467Z,12.77
2019-03-20T16:22:06.525Z,13.90
2019-03-20T16:24:37.001Z,14.80
2019-03-20T16:27:10.524Z,13.10
2019-03-20T16:29:40.876Z,14.17
2019-03-20T16:32:13.082Z,14.70
2019-03-20T16:34:43.566Z,14.43
2019-03-20T16:37:14.224Z,16.63
2019-03-20T16:39:44.878Z,15.20
2019-03-20T16:42:15.786Z,14.93
2019-03-20T16:44:46.263Z,15.50
2019-03-20T16:47:16.830Z,15.70
2019-03-20T16:49:47.466Z,15.10
2019-03-20T16:52:17.969Z,13.97
2019-03-20T16:54:49.257Z,15.90
2019-03-20T16:57:21.863Z,14.20
2019-03-20T17:00:00.746Z,15.23
2019-03-20T17:02:31.199Z,15.30
2019-03-20T17:05:01.614Z,15.63
2019-03-20T17:07:32.001Z,15.03
2019-03-20T17:10:02.309Z,15.03
2019-03-20T17:12:32.684Z,14.10
2019-03-20T17:15:03.065Z,14.73
2019-03-20T17:17:33.559Z,15.87
2019-03-20T17:20:04.050Z,16.40
2019-03-20T17:22:41.722Z,16.63
2019-03-20T17:25:08.885Z,17.90
2019-03-20T17:27:40.939Z,16.47
2019-03-20T17:30:15.219Z,17.47
2019-03-20T17:32:45.654Z,17.37
2019-03-20T17:35:16.204Z,17.37
2019-03-20T17:37:46.560Z,17.60
2019-03-20T17:40:17.673Z,17.53
2019-03-20T17:42:48.156Z,18.47
2019-03-20T17:45:19.137Z,18.50
2019-03-20T17:47:51.076Z,18.93
2019-03-20T17:50:23.257Z,17.17
2019-03-20T17:52:55.084Z,18.10
2019-03-20T17:55:25.537Z,18.53
2019-03-20T17:57:55.865Z,19.60
2019-03-20T18:00:47.710Z,19.40
2019-03-20T18:03:18.137Z,18.90
2019-03-20T18:05:48.470Z,20.07
2019-03-20T18:08:18.864Z,19.97
2019-03-20T18:10:49.228Z,19.60
2019-03-20T18:13:19.637Z,19.57
2019-03-20T18:15:51.657Z,20.70
2019-03-20T18:18:22.103Z,20.37
2019-03-20T18:20:53.245Z,20.20
2019-03-20T18:23:23.657Z,19.47
2019-03-20T18:25:54.145Z,18.40
2019-03-20T18:28:26.087Z,20.43
2019-03-20T18:30:58.358Z,20.30
2019-03-20T18:33:28.799Z,21.33
2019-03-20T18:35:59.200Z,21.07
2019-03-20T18:38:29.664Z,21.03
2019-03-20T18:41:00.240Z,19.57
2019-03-20T18:43:30.600Z,21.83
2019-03-20T18:46:03.729Z,21.93
2019-03-20T18:48:36.129Z,22.83
2019-03-20T18:51:06.183Z,21.13
2019-03-20T18:53:38.244Z,24.67
2019-03-20T18:56:08.571Z,24.93
2019-03-20T18:58:39.066Z,26.43
2019-03-20T19:01:10.163Z,26.47
2019-03-20T19:03:44.254Z,28.13
2019-03-20T19:06:18.570Z,28.50
2019-03-20T19:08:48.978Z,30.97
2019-03-20T19:11:19.502Z,29.70
2019-03-20T19:13:49.924Z,29.53
2019-03-20T19:16:20.256Z,30.87
2019-03-20T19:18:50.677Z,31.03
2019-03-20T19:21:21.278Z,31.87
2019-03-20T19:23:51.619Z,32.53
2019-03-20T19:26:21.963Z,30.63
2019-03-20T19:28:52.361Z,29.50
2019-03-20T19:31:22.740Z,27.97
2019-03-20T19:33:53.121Z,29.43
2019-03-20T19:36:23.605Z,29.80
2019-03-20T19:38:54.111Z,31.20
2019-03-20T19:41:24.588Z,31.87
2019-03-20T19:43:55.030Z,31.97
2019-03-20T19:46:25.408Z,33.50
2019-03-20T19:48:55.754Z,32.03
2019-03-20T19:51:26.277Z,31.83
2019-03-20T19:53:56.567Z,32.90
2019-03-20T19:56:26.949Z,31.47
2019-03-20T19:58:58.852Z,32.63
2019-03-20T20:01:29.207Z,29.57
2019-03-20T20:03:59.631Z,30.30
2019-03-20T20:06:30.005Z,31.27
2019-03-20T20:09:02.466Z,29.93
2019-03-20T20:11:33.096Z,28.87
2019-03-20T20:14:03.861Z,30.00
2019-03-20T20:16:35.632Z,29.27
2019-03-20T20:19:06.167Z,27.87
2019-03-20T20:21:36.578Z,25.47
2019-03-20T20:24:07.049Z,25.93
2019-03-20T20:26:37.487Z,25.80
2019-03-20T20:29:07.879Z,27.63
2019-03-20T20:31:39.249Z,28.20
2019-03-20T20:34:10.218Z,23.63
2019-03-20T20:36:40.588Z,24.70
2019-03-20T20:39:10.926Z,25.10
2019-03-20T20:41:41.413Z,24.57
2019-03-20T20:44:11.698Z,23.80
2019-03-20T20:46:41.990Z,22.27
2019-03-20T20:49:13.211Z,23.07
2019-03-20T20:51:43.573Z,25.00
2019-03-20T20:54:13.899Z,24.20
2019-03-20T20:56:44.145Z,23.13
2019-03-20T20:59:14.444Z,25.93
2019-03-20T21:01:44.841Z,22.50
2019-03-20T21:04:15.164Z,22.93
2019-03-20T21:06:45.413Z,21.37
2019-03-20T21:09:15.810Z,20.47
2019-03-20T21:11:46.113Z,20.20
2019-03-20T21:14:16.457Z,20.17
2019-03-20T21:16:50.366Z,20.37
2019-03-20T21:19:38.121Z,21.63
2019-03-20T21:22:46.083Z,20.23
2019-03-20T21:25:18.273Z,21.17
2019-03-20T21:28:28.699Z,20.37
2019-03-20T21:31:40.262Z,22.43
2019-03-20T21:34:50.351Z,22.13
2019-03-20T21:37:59.906Z,23.73
2019-03-20T21:40:32.033Z,24.37
2019-03-20T21:43:57.944Z,21.80
2019-03-20T21:47:09.040Z,23.67
2019-03-20T21:49:39.963Z,22.47
2019-03-20T21:52:10.844Z,22.77
2019-03-20T21:55:30.215Z,24.90
2019-03-20T21:58:05.672Z,23.13
2019-03-20T22:01:34.057Z,22.30
2019-03-20T22:04:05.030Z,22.57
2019-03-20T22:07:22.601Z,23.77
2019-03-20T22:10:41.628Z,21.10
2019-03-20T22:13:34.516Z,21.37
2019-03-20T22:16:52.180Z,24.17
2019-03-20T22:19:46.246Z,23.63
2019-03-20T22:22:53.389Z,24.50
2019-03-20T22:26:03.723Z,26.20
2019-03-20T22:29:26.967Z,25.07
2019-03-20T22:32:50.553Z,24.43
2019-03-20T22:35:47.947Z,25.17
2019-03-20T22:38:55.643Z,24.37
2019-03-20T22:42:13.030Z,22.57
2019-03-20T22:44:57.604Z,24.27
2019-03-20T22:48:23.883Z,23.17
2019-03-20T22:51:03.205Z,26.67
2019-03-20T22:54:03.619Z,27.67
2019-03-20T22:57:07.604Z,29.90
2019-03-20T22:59:39.609Z,28.57
2019-03-20T23:02:44.398Z,30.07
2019-03-20T23:05:15.208Z,32.20
2019-03-20T23:07:46.138Z,32.07
2019-03-20T23:10:17.012Z,33.20
2019-03-20T23:12:49.181Z,33.43
2019-03-20T23:15:20.164Z,33.43
2019-03-20T23:17:50.998Z,34.97
2019-03-20T23:20:23.594Z,34.77
2019-03-20T23:22:54.563Z,33.07
2019-03-20T23:25:29.774Z,34.13
2019-03-20T23:28:00.662Z,34.97
2019-03-20T23:30:31.684Z,37.03
2019-03-20T23:33:02.628Z,35.03
2019-03-20T23:35:33.564Z,35.13
2019-03-20T23:38:05.852Z,34.90
2019-03-20T23:40:36.814Z,33.87
2019-03-20T23:43:08.291Z,34.53
2019-03-20T23:45:39.228Z,35.57
2019-03-20T23:48:30.878Z,33.43
2019-03-20T23:51:05.619Z,33.57
2019-03-20T23:53:37.143Z,31.00
2019-03-20T23:56:08.071Z,33.17
2019-03-20T23:58:38.955Z,34.27
